sensor_id;sensor_type;location;lat;lon;timestamp;pressure;altitude;pressure_sealevel;temperature;humidity
40574;BME280;26283;49.020;8.644;2022-11-30T00:00:58;99604.28;;;10.83;62.07
40574;BME280;26283;49.020;8.644;2022-11-30T00:03:23;99605.34;;;10.82;62.08
40574;BME280;26283;49.020;8.644;2022-11-30T00:05:49;99606.97;;;10.83;62.08
40574;BME280;26283;49.020;8.644;2022-11-30T00:08:15;99595.38;;;10.82;62.09
40574;BME280;26283;49.020;8.644;2022-11-30T00:10:41;99600.78;;;10.82;62.09
40574;BME280;26283;49.020;8.644;2022-11-30T00:13:07;99603.47;;;10.82;62.10
40574;BME280;26283;49.020;8.644;2022-11-30T00:15:34;99599.97;;;10.82;62.09
40574;BME280;26283;49.020;8.644;2022-11-30T00:18:00;99598.88;;;10.83;62.09
40574;BME280;26283;49.020;8.644;2022-11-30T00:20:26;99594.56;;;10.82;62.10
40574;BME280;26283;49.020;8.644;2022-11-30T00:22:55;99595.38;;;10.82;62.10
40574;BME280;26283;49.020;8.644;2022-11-30T00:25:20;99593.72;;;10.81;62.10
40574;BME280;26283;49.020;8.644;2022-11-30T00:27:46;99591.03;;;10.81;62.11
40574;BME280;26283;49.020;8.644;2022-11-30T00:30:12;99580.25;;;10.81;62.12
40574;BME280;26283;49.020;8.644;2022-11-30T00:32:37;99589.16;;;10.82;62.11
40574;BME280;26283;49.020;8.644;2022-11-30T00:35:03;99582.94;;;10.81;62.13
40574;BME280;26283;49.020;8.644;2022-11-30T00:37:28;99585.66;;;10.81;62.14
40574;BME280;26283;49.020;8.644;2022-11-30T00:39:54;99594.56;;;10.82;62.14
40574;BME280;26283;49.020;8.644;2022-11-30T00:42:19;99589.37;;;10.80;62.14
40574;BME280;26283;49.020;8.644;2022-11-30T00:44:44;99584.81;;;10.81;62.14
40574;BME280;26283;49.020;8.644;2022-11-30T00:47:10;99586.69;;;10.80;62.14
40574;BME280;26283;49.020;8.644;2022-11-30T00:49:35;99596.44;;;10.81;62.15
40574;BME280;26283;49.020;8.644;2022-11-30T00:52:01;99596.44;;;10.81;62.15
40574;BME280;26283;49.020;8.644;2022-11-30T00:54:26;99598.31;;;10.81;62.15
40574;BME280;26283;49.020;8.644;2022-11-30T00:56:52;99600.16;;;10.80;62.16
40574;BME280;26283;49.020;8.644;2022-11-30T00:59:18;99594.78;;;10.80;62.16
40574;BME280;26283;49.020;8.644;2022-11-30T01:01:43;99599.34;;;10.80;62.15
40574;BME280;26283;49.020;8.644;2022-11-30T01:04:08;99601.00;;;10.81;62.15
40574;BME280;26283;49.020;8.644;2022-11-30T01:06:34;99597.25;;;10.82;62.16
40574;BME280;26283;49.020;8.644;2022-11-30T01:08:59;99598.31;;;10.81;62.15
40574;BME280;26283;49.020;8.644;2022-11-30T01:11:28;99599.13;;;10.81;62.17
40574;BME280;26283;49.020;8.644;2022-11-30T01:13:55;99601.81;;;10.81;62.18
40574;BME280;26283;49.020;8.644;2022-11-30T01:16:25;99609.91;;;10.81;62.18
40574;BME280;26283;49.020;8.644;2022-11-30T01:18:51;99606.38;;;10.81;62.19
40574;BME280;26283;49.020;8.644;2022-11-30T01:21:19;99602.03;;;10.80;62.19
40574;BME280;26283;49.020;8.644;2022-11-30T01:23:45;99601.19;;;10.79;62.19
40574;BME280;26283;49.020;8.644;2022-11-30T01:26:12;99604.72;;;10.80;62.19
40574;BME280;26283;49.020;8.644;2022-11-30T01:28:37;99611.78;;;10.81;62.21
40574;BME280;26283;49.020;8.644;2022-11-30T01:31:06;99609.28;;;10.79;62.21
40574;BME280;26283;49.020;8.644;2022-11-30T01:33:32;99608.25;;;10.80;62.20
40574;BME280;26283;49.020;8.644;2022-11-30T01:38:36;99609.28;;;10.79;62.21
40574;BME280;26283;49.020;8.644;2022-11-30T01:41:03;99604.72;;;10.80;62.22
40574;BME280;26283;49.020;8.644;2022-11-30T01:48:55;99605.75;;;10.79;62.24
40574;BME280;26283;49.020;8.644;2022-11-30T01:51:25;99603.06;;;10.79;62.23
40574;BME280;26283;49.020;8.644;2022-11-30T01:53:53;99610.94;;;10.80;62.23
40574;BME280;26283;49.020;8.644;2022-11-30T01:56:18;99608.47;;;10.79;62.24
40574;BME280;26283;49.020;8.644;2022-11-30T01:58:44;99607.63;;;10.78;62.24
40574;BME280;26283;49.020;8.644;2022-11-30T02:01:09;99609.28;;;10.79;62.24
40574;BME280;26283;49.020;8.644;2022-11-30T02:03:47;99614.69;;;10.79;62.25
40574;BME280;26283;49.020;8.644;2022-11-30T02:06:14;99621.13;;;10.78;62.26
40574;BME280;26283;49.020;8.644;2022-11-30T02:08:39;99613.03;;;10.78;62.24
40574;BME280;26283;49.020;8.644;2022-11-30T02:11:08;99614.69;;;10.79;62.25
40574;BME280;26283;49.020;8.644;2022-11-30T02:19:16;99621.94;;;10.79;62.27
40574;BME280;26283;49.020;8.644;2022-11-30T02:22:17;99621.94;;;10.79;62.28
40574;BME280;26283;49.020;8.644;2022-11-30T02:27:55;99622.97;;;10.78;62.30
40574;BME280;26283;49.020;8.644;2022-11-30T02:30:23;99622.16;;;10.77;62.29
40574;BME280;26283;49.020;8.644;2022-11-30T02:33:19;99619.44;;;10.77;62.29
40574;BME280;26283;49.020;8.644;2022-11-30T02:35:49;99622.16;;;10.77;62.38
40574;BME280;26283;49.020;8.644;2022-11-30T02:38:19;99624.00;;;10.77;62.31
40574;BME280;26283;49.020;8.644;2022-11-30T02:40:46;99621.31;;;10.77;62.33
40574;BME280;26283;49.020;8.644;2022-11-30T02:43:11;99621.31;;;10.77;62.33
40574;BME280;26283;49.020;8.644;2022-11-30T02:48:10;99622.16;;;10.77;62.34
40574;BME280;26283;49.020;8.644;2022-11-30T02:50:49;99614.88;;;10.78;62.34
40574;BME280;26283;49.020;8.644;2022-11-30T02:53:17;99622.97;;;10.78;62.33
40574;BME280;26283;49.020;8.644;2022-11-30T02:55:43;99622.16;;;10.77;62.32
40574;BME280;26283;49.020;8.644;2022-11-30T02:58:09;99627.53;;;10.77;62.33
40574;BME280;26283;49.020;8.644;2022-11-30T03:00:34;99622.16;;;10.77;62.33
40574;BME280;26283;49.020;8.644;2022-11-30T03:03:00;99621.31;;;10.77;62.33
40574;BME280;26283;49.020;8.644;2022-11-30T03:05:25;99626.72;;;10.77;62.33
40574;BME280;26283;49.020;8.644;2022-11-30T03:07:50;99620.28;;;10.78;62.34
40574;BME280;26283;49.020;8.644;2022-11-30T03:10:16;99622.97;;;10.78;62.33
40574;BME280;26283;49.020;8.644;2022-11-30T03:12:41;99624.84;;;10.77;62.33
40574;BME280;26283;49.020;8.644;2022-11-30T03:15:07;99630.22;;;10.77;62.33
40574;BME280;26283;49.020;8.644;2022-11-30T03:17:32;99628.37;;;10.78;62.33
40574;BME280;26283;49.020;8.644;2022-11-30T03:19:58;99623.81;;;10.78;62.34
40574;BME280;26283;49.020;8.644;2022-11-30T03:22:23;99629.19;;;10.78;62.35
40574;BME280;26283;49.020;8.644;2022-11-30T03:24:49;99622.16;;;10.77;62.35
40574;BME280;26283;49.020;8.644;2022-11-30T03:27:14;99635.63;;;10.77;62.37
40574;BME280;26283;49.020;8.644;2022-11-30T03:29:40;99624.84;;;10.77;62.36
40574;BME280;26283;49.020;8.644;2022-11-30T03:32:05;99624.84;;;10.77;62.36
40574;BME280;26283;49.020;8.644;2022-11-30T03:34:31;99629.41;;;10.77;62.36
40574;BME280;26283;49.020;8.644;2022-11-30T03:36:56;99632.94;;;10.77;62.36
40574;BME280;26283;49.020;8.644;2022-11-30T03:39:22;99626.72;;;10.77;62.38
40574;BME280;26283;49.020;8.644;2022-11-30T03:41:48;99633.97;;;10.76;62.37
40574;BME280;26283;49.020;8.644;2022-11-30T03:44:13;99626.91;;;10.75;62.38
40574;BME280;26283;49.020;8.644;2022-11-30T03:46:39;99628.56;;;10.76;62.40
40574;BME280;26283;49.020;8.644;2022-11-30T03:49:04;99623.19;;;10.76;62.39
40574;BME280;26283;49.020;8.644;2022-11-30T03:51:30;99624.22;;;10.75;62.39
40574;BME280;26283;49.020;8.644;2022-11-30T03:53:55;99628.56;;;10.76;62.38
40574;BME280;26283;49.020;8.644;2022-11-30T03:56:21;99628.56;;;10.76;62.39
40574;BME280;26283;49.020;8.644;2022-11-30T03:58:46;99625.88;;;10.76;62.40
40574;BME280;26283;49.020;8.644;2022-11-30T04:01:14;99630.44;;;10.76;62.41
40574;BME280;26283;49.020;8.644;2022-11-30T04:03:41;99627.75;;;10.76;62.42
40574;BME280;26283;49.020;8.644;2022-11-30T04:06:08;99631.28;;;10.76;62.42
40574;BME280;26283;49.020;8.644;2022-11-30T04:08:34;99630.66;;;10.74;62.42
40574;BME280;26283;49.020;8.644;2022-11-30T04:11:00;99635.84;;;10.76;62.43
40574;BME280;26283;49.020;8.644;2022-11-30T04:13:28;99638.53;;;10.76;62.44
40574;BME280;26283;49.020;8.644;2022-11-30T04:15:54;99644.75;;;10.76;62.44
40574;BME280;26283;49.020;8.644;2022-11-30T04:18:20;99637.69;;;10.75;62.45
40574;BME280;26283;49.020;8.644;2022-11-30T04:20:49;99640.41;;;10.75;62.43
40574;BME280;26283;49.020;8.644;2022-11-30T04:23:15;99641.22;;;10.76;62.45
40574;BME280;26283;49.020;8.644;2022-11-30T04:25:41;99635.84;;;10.76;62.44
40574;BME280;26283;49.020;8.644;2022-11-30T04:28:08;99635.84;;;10.76;62.45
40574;BME280;26283;49.020;8.644;2022-11-30T04:30:34;99644.13;;;10.74;62.45
40574;BME280;26283;49.020;8.644;2022-11-30T04:33:00;99636.03;;;10.74;62.45
40574;BME280;26283;49.020;8.644;2022-11-30T04:35:25;99638.75;;;10.74;62.45
40574;BME280;26283;49.020;8.644;2022-11-30T04:37:51;99637.91;;;10.74;62.46
40574;BME280;26283;49.020;8.644;2022-11-30T04:40:16;99639.56;;;10.75;62.45
40574;BME280;26283;49.020;8.644;2022-11-30T04:42:42;99629.81;;;10.74;62.46
40574;BME280;26283;49.020;8.644;2022-11-30T04:45:07;99638.75;;;10.74;62.46
40574;BME280;26283;49.020;8.644;2022-11-30T04:47:33;99633.34;;;10.74;62.46
40574;BME280;26283;49.020;8.644;2022-11-30T04:49:58;99640.41;;;10.75;62.45
40574;BME280;26283;49.020;8.644;2022-11-30T04:52:24;99635.00;;;10.75;62.45
40574;BME280;26283;49.020;8.644;2022-11-30T04:54:49;99633.34;;;10.74;62.45
40574;BME280;26283;49.020;8.644;2022-11-30T04:57:15;99633.34;;;10.74;62.46
40574;BME280;26283;49.020;8.644;2022-11-30T04:59:41;99634.19;;;10.75;62.46
40574;BME280;26283;49.020;8.644;2022-11-30T05:02:06;99636.88;;;10.75;62.48
40574;BME280;26283;49.020;8.644;2022-11-30T05:04:31;99638.75;;;10.74;62.48
40574;BME280;26283;49.020;8.644;2022-11-30T05:06:57;99643.31;;;10.74;62.49
40574;BME280;26283;49.020;8.644;2022-11-30T05:09:22;99642.47;;;10.73;62.48
40574;BME280;26283;49.020;8.644;2022-11-30T05:11:47;99636.25;;;10.73;62.48
40574;BME280;26283;49.020;8.644;2022-11-30T05:14:13;99641.44;;;10.74;62.50
40574;BME280;26283;49.020;8.644;2022-11-30T05:16:39;99637.09;;;10.73;62.50
40574;BME280;26283;49.020;8.644;2022-11-30T05:19:04;99642.47;;;10.73;62.49
40574;BME280;26283;49.020;8.644;2022-11-30T05:21:30;99649.72;;;10.73;62.51
40574;BME280;26283;49.020;8.644;2022-11-30T05:23:55;99646.19;;;10.72;62.51
40574;BME280;26283;49.020;8.644;2022-11-30T05:26:21;99654.91;;;10.74;62.51
40574;BME280;26283;49.020;8.644;2022-11-30T05:28:46;99647.88;;;10.73;62.52
40574;BME280;26283;49.020;8.644;2022-11-30T05:31:11;99656.78;;;10.74;62.51
40574;BME280;26283;49.020;8.644;2022-11-30T05:33:37;99653.25;;;10.73;62.50
40574;BME280;26283;49.020;8.644;2022-11-30T05:36:02;99654.28;;;10.72;62.50
40574;BME280;26283;49.020;8.644;2022-11-30T05:38:27;99655.12;;;10.73;62.51
40574;BME280;26283;49.020;8.644;2022-11-30T05:40:58;99662.38;;;10.72;62.52
40574;BME280;26283;49.020;8.644;2022-11-30T05:43:25;99664.03;;;10.73;62.53
40574;BME280;26283;49.020;8.644;2022-11-30T05:45:50;99665.06;;;10.72;62.53
40574;BME280;26283;49.020;8.644;2022-11-30T05:48:16;99668.59;;;10.73;62.53
40574;BME280;26283;49.020;8.644;2022-11-30T05:50:41;99671.28;;;10.73;62.54
40574;BME280;26283;49.020;8.644;2022-11-30T05:53:06;99671.28;;;10.73;62.53
40574;BME280;26283;49.020;8.644;2022-11-30T05:55:32;99667.78;;;10.72;62.55
40574;BME280;26283;49.020;8.644;2022-11-30T05:57:57;99671.50;;;10.71;62.56
40574;BME280;26283;49.020;8.644;2022-11-30T06:00:23;99673.16;;;10.72;62.56
40574;BME280;26283;49.020;8.644;2022-11-30T06:02:54;99666.94;;;10.72;62.58
40574;BME280;26283;49.020;8.644;2022-11-30T06:05:19;99671.50;;;10.71;62.61
40574;BME280;26283;49.020;8.644;2022-11-30T06:07:44;99666.13;;;10.71;62.59
40574;BME280;26283;49.020;8.644;2022-11-30T06:10:10;99656.38;;;10.70;62.59
40574;BME280;26283;49.020;8.644;2022-11-30T06:12:36;99655.34;;;10.71;62.59
40574;BME280;26283;49.020;8.644;2022-11-30T06:15:01;99665.28;;;10.71;62.59
40574;BME280;26283;49.020;8.644;2022-11-30T06:17:27;99659.06;;;10.70;62.60
40574;BME280;26283;49.020;8.644;2022-11-30T06:19:52;99663.41;;;10.71;62.62
40574;BME280;26283;49.020;8.644;2022-11-30T06:22:18;99660.94;;;10.70;62.61
40574;BME280;26283;49.020;8.644;2022-11-30T06:24:43;99659.88;;;10.71;62.60
40574;BME280;26283;49.020;8.644;2022-11-30T06:27:08;99660.72;;;10.71;62.61
40574;BME280;26283;49.020;8.644;2022-11-30T06:29:34;99654.72;;;10.69;62.61
40574;BME280;26283;49.020;8.644;2022-11-30T06:31:59;99652.00;;;10.69;62.60
40574;BME280;26283;49.020;8.644;2022-11-30T06:34:24;99657.41;;;10.69;62.60
40574;BME280;26283;49.020;8.644;2022-11-30T06:36:50;99649.31;;;10.69;62.62
40574;BME280;26283;49.020;8.644;2022-11-30T06:39:15;99652.84;;;10.70;62.63
40574;BME280;26283;49.020;8.644;2022-11-30T06:41:40;99652.84;;;10.70;62.65
40574;BME280;26283;49.020;8.644;2022-11-30T06:44:09;99658.22;;;10.70;62.65
40574;BME280;26283;49.020;8.644;2022-11-30T06:46:35;99659.28;;;10.69;62.67
40574;BME280;26283;49.020;8.644;2022-11-30T06:49:00;99656.78;;;10.67;62.67
40574;BME280;26283;49.020;8.644;2022-11-30T06:51:25;99659.47;;;10.67;62.67
40574;BME280;26283;49.020;8.644;2022-11-30T06:53:51;99650.34;;;10.68;62.67
40574;BME280;26283;49.020;8.644;2022-11-30T06:56:16;99660.31;;;10.68;62.67
40574;BME280;26283;49.020;8.644;2022-11-30T06:58:42;99656.56;;;10.69;62.67
40574;BME280;26283;49.020;8.644;2022-11-30T07:01:10;99665.50;;;10.69;62.68
40574;BME280;26283;49.020;8.644;2022-11-30T07:03:36;99665.69;;;10.68;62.71
40574;BME280;26283;49.020;8.644;2022-11-30T07:06:11;99665.69;;;10.68;62.71
40574;BME280;26283;49.020;8.644;2022-11-30T07:08:37;99659.47;;;10.67;62.72
40574;BME280;26283;49.020;8.644;2022-11-30T07:11:04;99671.91;;;10.68;62.72
40574;BME280;26283;49.020;8.644;2022-11-30T07:13:29;99671.09;;;10.68;62.71
40574;BME280;26283;49.020;8.644;2022-11-30T07:15:55;99672.94;;;10.67;62.71
40574;BME280;26283;49.020;8.644;2022-11-30T07:18:21;99675.66;;;10.67;62.71
40574;BME280;26283;49.020;8.644;2022-11-30T07:20:46;99670.25;;;10.67;62.72
40574;BME280;26283;49.020;8.644;2022-11-30T07:23:11;99667.56;;;10.67;62.72
40574;BME280;26283;49.020;8.644;2022-11-30T07:25:59;99670.25;;;10.67;62.72
40574;BME280;26283;49.020;8.644;2022-11-30T07:28:38;99672.34;;;10.65;62.71
40574;BME280;26283;49.020;8.644;2022-11-30T07:33:46;99677.72;;;10.65;62.74
40574;BME280;26283;49.020;8.644;2022-11-30T07:36:12;99680.41;;;10.65;62.72
40574;BME280;26283;49.020;8.644;2022-11-30T07:38:37;99683.13;;;10.65;62.74
40574;BME280;26283;49.020;8.644;2022-11-30T07:41:03;99682.28;;;10.64;62.76
40574;BME280;26283;49.020;8.644;2022-11-30T07:43:29;99684.97;;;10.64;62.77
40574;BME280;26283;49.020;8.644;2022-11-30T07:45:55;99685.81;;;10.65;62.77
40574;BME280;26283;49.020;8.644;2022-11-30T07:48:21;99687.66;;;10.64;62.77
40574;BME280;26283;49.020;8.644;2022-11-30T07:50:47;99689.34;;;10.65;62.76
40574;BME280;26283;49.020;8.644;2022-11-30T07:53:13;99687.66;;;10.64;62.78
40574;BME280;26283;49.020;8.644;2022-11-30T07:55:38;99686.84;;;10.64;62.79
40574;BME280;26283;49.020;8.644;2022-11-30T07:58:04;99686.00;;;10.63;62.81
40574;BME280;26283;49.020;8.644;2022-11-30T08:00:29;99701.34;;;10.63;62.82
40574;BME280;26283;49.020;8.644;2022-11-30T08:02:55;99698.66;;;10.63;62.82
40574;BME280;26283;49.020;8.644;2022-11-30T08:05:20;99695.97;;;10.63;62.83
40574;BME280;26283;49.020;8.644;2022-11-30T08:07:51;99697.00;;;10.62;62.84
40574;BME280;26283;49.020;8.644;2022-11-30T08:10:17;99697.00;;;10.62;62.84
40574;BME280;26283;49.020;8.644;2022-11-30T08:12:43;99706.94;;;10.61;62.85
40574;BME280;26283;49.020;8.644;2022-11-30T08:15:09;99702.63;;;10.60;62.86
40574;BME280;26283;49.020;8.644;2022-11-30T08:17:34;99715.88;;;10.62;62.85
40574;BME280;26283;49.020;8.644;2022-11-30T08:19:59;99717.53;;;10.63;62.85
40574;BME280;26283;49.020;8.644;2022-11-30T08:22:25;99711.31;;;10.62;62.83
40574;BME280;26283;49.020;8.644;2022-11-30T08:24:50;99709.44;;;10.63;62.84
40574;BME280;26283;49.020;8.644;2022-11-30T08:27:16;99698.66;;;10.63;62.84
40574;BME280;26283;49.020;8.644;2022-11-30T08:29:41;99708.81;;;10.61;62.85
40574;BME280;26283;49.020;8.644;2022-11-30T08:32:07;99710.47;;;10.62;62.85
40574;BME280;26283;49.020;8.644;2022-11-30T08:34:32;99711.31;;;10.62;62.86
40574;BME280;26283;49.020;8.644;2022-11-30T08:36:57;99710.47;;;10.62;62.87
40574;BME280;26283;49.020;8.644;2022-11-30T08:39:23;99705.09;;;10.62;62.89
40574;BME280;26283;49.020;8.644;2022-11-30T08:41:48;99707.19;;;10.60;62.89
40574;BME280;26283;49.020;8.644;2022-11-30T08:44:14;99711.50;;;10.61;62.89
40574;BME280;26283;49.020;8.644;2022-11-30T08:46:39;99708.81;;;10.61;62.88
40574;BME280;26283;49.020;8.644;2022-11-30T08:49:04;99711.50;;;10.61;62.87
40574;BME280;26283;49.020;8.644;2022-11-30T08:51:30;99717.72;;;10.61;62.87
40574;BME280;26283;49.020;8.644;2022-11-30T08:53:55;99722.28;;;10.61;62.88
40574;BME280;26283;49.020;8.644;2022-11-30T08:56:22;99732.03;;;10.62;62.87
40574;BME280;26283;49.020;8.644;2022-11-30T08:58:48;99729.34;;;10.62;62.86
40574;BME280;26283;49.020;8.644;2022-11-30T09:01:23;99727.47;;;10.62;62.86
40574;BME280;26283;49.020;8.644;2022-11-30T09:03:52;99733.06;;;10.61;62.88
40574;BME280;26283;49.020;8.644;2022-11-30T09:06:20;99743.66;;;10.62;62.86
40574;BME280;26283;49.020;8.644;2022-11-30T09:08:47;99741.16;;;10.61;62.87
40574;BME280;26283;49.020;8.644;2022-11-30T09:11:14;99737.44;;;10.62;62.88
40574;BME280;26283;49.020;8.644;2022-11-30T09:13:41;99742.00;;;10.61;62.88
40574;BME280;26283;49.020;8.644;2022-11-30T09:16:06;99738.47;;;10.61;62.89
40574;BME280;26283;49.020;8.644;2022-11-30T09:18:32;99739.28;;;10.61;62.90
40574;BME280;26283;49.020;8.644;2022-11-30T09:21:06;99735.78;;;10.61;62.91
40574;BME280;26283;49.020;8.644;2022-11-30T09:23:33;99739.53;;;10.60;62.91
40574;BME280;26283;49.020;8.644;2022-11-30T09:26:00;99746.53;;;10.61;62.90
40574;BME280;26283;49.020;8.644;2022-11-30T09:28:26;99754.63;;;10.61;62.91
40574;BME280;26283;49.020;8.644;2022-11-30T09:30:52;99747.38;;;10.61;62.92
40574;BME280;26283;49.020;8.644;2022-11-30T09:33:18;99751.94;;;10.61;62.92
40574;BME280;26283;49.020;8.644;2022-11-30T09:35:44;99755.69;;;10.60;62.93
40574;BME280;26283;49.020;8.644;2022-11-30T09:38:18;99754.63;;;10.61;62.94
40574;BME280;26283;49.020;8.644;2022-11-30T09:40:43;99754.03;;;10.59;62.95
40574;BME280;26283;49.020;8.644;2022-11-30T09:46:06;99764.81;;;10.59;63.00
40574;BME280;26283;49.020;8.644;2022-11-30T09:51:17;99754.03;;;10.59;62.98
40574;BME280;26283;49.020;8.644;2022-11-30T09:53:47;99759.44;;;10.59;62.96
40574;BME280;26283;49.020;8.644;2022-11-30T09:56:26;99754.88;;;10.59;62.96
40574;BME280;26283;49.020;8.644;2022-11-30T09:59:01;99746.78;;;10.59;62.98
40574;BME280;26283;49.020;8.644;2022-11-30T10:01:28;99749.47;;;10.59;62.99
40574;BME280;26283;49.020;8.644;2022-11-30T10:03:54;99751.13;;;10.60;62.98
40574;BME280;26283;49.020;8.644;2022-11-30T10:09:42;99743.25;;;10.59;63.00
40574;BME280;26283;49.020;8.644;2022-11-30T10:23:05;99752.38;;;10.58;63.04
40574;BME280;26283;49.020;8.644;2022-11-30T10:26:05;99744.28;;;10.58;63.07
40574;BME280;26283;49.020;8.644;2022-11-30T10:31:25;99745.12;;;10.58;63.03
40574;BME280;26283;49.020;8.644;2022-11-30T10:33:53;99735.59;;;10.56;63.02
40574;BME280;26283;49.020;8.644;2022-11-30T10:36:32;99730.81;;;10.58;63.04
40574;BME280;26283;49.020;8.644;2022-11-30T10:39:02;99734.34;;;10.58;63.07
40574;BME280;26283;49.020;8.644;2022-11-30T10:41:44;99722.72;;;10.58;63.05
40574;BME280;26283;49.020;8.644;2022-11-30T10:44:14;99726.25;;;10.58;63.08
40574;BME280;26283;49.020;8.644;2022-11-30T10:46:49;99724.41;;;10.59;63.06
40574;BME280;26283;49.020;8.644;2022-11-30T10:49:18;99723.78;;;10.57;63.07
40574;BME280;26283;49.020;8.644;2022-11-30T10:51:46;99722.72;;;10.58;63.06
40574;BME280;26283;49.020;8.644;2022-11-30T10:54:17;99721.69;;;10.59;63.05
40574;BME280;26283;49.020;8.644;2022-11-30T10:56:44;99716.31;;;10.59;63.04
40574;BME280;26283;49.020;8.644;2022-11-30T10:59:22;99711.75;;;10.59;63.03
40574;BME280;26283;49.020;8.644;2022-11-30T11:01:49;99694.75;;;10.59;63.03
40574;BME280;26283;49.020;8.644;2022-11-30T11:04:19;99699.09;;;10.60;62.99
40574;BME280;26283;49.020;8.644;2022-11-30T11:06:52;99699.09;;;10.60;63.00
40574;BME280;26283;49.020;8.644;2022-11-30T11:11:56;99700.72;;;10.61;63.00
40574;BME280;26283;49.020;8.644;2022-11-30T11:14:24;99703.44;;;10.61;62.99
40574;BME280;26283;49.020;8.644;2022-11-30T11:16:59;99695.34;;;10.61;62.97
40574;BME280;26283;49.020;8.644;2022-11-30T11:19:37;99703.44;;;10.61;63.00
40574;BME280;26283;49.020;8.644;2022-11-30T11:22:12;99708.81;;;10.61;62.98
40574;BME280;26283;49.020;8.644;2022-11-30T11:24:40;99698.03;;;10.61;62.97
40574;BME280;26283;49.020;8.644;2022-11-30T11:27:06;99703.44;;;10.61;62.98
40574;BME280;26283;49.020;8.644;2022-11-30T11:29:32;99698.03;;;10.61;62.99
40574;BME280;26283;49.020;8.644;2022-11-30T11:32:20;99701.56;;;10.61;62.99
40574;BME280;26283;49.020;8.644;2022-11-30T11:34:46;99702.38;;;10.62;63.01
40574;BME280;26283;49.020;8.644;2022-11-30T11:37:28;99710.47;;;10.62;62.93
40574;BME280;26283;49.020;8.644;2022-11-30T11:42:45;99705.91;;;10.62;62.96
40574;BME280;26283;49.020;8.644;2022-11-30T11:45:40;99705.09;;;10.62;62.95
40574;BME280;26283;49.020;8.644;2022-11-30T11:48:38;99706.75;;;10.63;62.99
40574;BME280;26283;49.020;8.644;2022-11-30T11:51:09;99708.62;;;10.62;62.93
40574;BME280;26283;49.020;8.644;2022-11-30T11:53:54;99706.75;;;10.63;62.92
40574;BME280;26283;49.020;8.644;2022-11-30T11:56:36;99702.38;;;10.62;62.97
40574;BME280;26283;49.020;8.644;2022-11-30T12:02:37;99705.09;;;10.62;63.01
40574;BME280;26283;49.020;8.644;2022-11-30T12:05:30;99699.69;;;10.62;62.98
40574;BME280;26283;49.020;8.644;2022-11-30T12:08:09;99709.66;;;10.61;63.00
40574;BME280;26283;49.020;8.644;2022-11-30T12:10:43;99705.91;;;10.62;62.97
40574;BME280;26283;49.020;8.644;2022-11-30T12:13:22;99708.41;;;10.64;62.96
40574;BME280;26283;49.020;8.644;2022-11-30T12:16:13;99704.88;;;10.63;62.97
40574;BME280;26283;49.020;8.644;2022-11-30T12:18:54;99700.31;;;10.64;62.96
40574;BME280;26283;49.020;8.644;2022-11-30T12:27:32;99703.84;;;10.64;62.90
40574;BME280;26283;49.020;8.644;2022-11-30T12:30:14;99704.66;;;10.65;62.90
40574;BME280;26283;49.020;8.644;2022-11-30T12:46:33;99702.59;;;10.67;62.91
40574;BME280;26283;49.020;8.644;2022-11-30T13:05:23;99699.91;;;10.67;62.92
40574;BME280;26283;49.020;8.644;2022-11-30T13:08:04;99702.59;;;10.67;62.91
40574;BME280;26283;49.020;8.644;2022-11-30T13:10:53;99699.69;;;10.69;62.89
40574;BME280;26283;49.020;8.644;2022-11-30T13:13:24;99697.84;;;10.69;62.89
40574;BME280;26283;49.020;8.644;2022-11-30T13:15:50;99700.53;;;10.69;62.85
40574;BME280;26283;49.020;8.644;2022-11-30T13:18:18;99691.41;;;10.70;62.87
40574;BME280;26283;49.020;8.644;2022-11-30T13:31:13;99692.03;;;10.72;62.77
40574;BME280;26283;49.020;8.644;2022-11-30T13:33:55;99699.09;;;10.73;62.78
40574;BME280;26283;49.020;8.644;2022-11-30T13:36:42;99702.81;;;10.72;62.78
40574;BME280;26283;49.020;8.644;2022-11-30T13:39:24;99700.94;;;10.73;62.79
40574;BME280;26283;49.020;8.644;2022-11-30T13:44:37;99698.25;;;10.73;62.75
40574;BME280;26283;49.020;8.644;2022-11-30T13:49:56;99697.44;;;10.72;62.79
40574;BME280;26283;49.020;8.644;2022-11-30T14:02:54;99708.81;;;10.74;62.77
40574;BME280;26283;49.020;8.644;2022-11-30T14:10:28;99708.00;;;10.74;62.76
40574;BME280;26283;49.020;8.644;2022-11-30T14:12:58;99708.81;;;10.74;62.76
40574;BME280;26283;49.020;8.644;2022-11-30T14:20:44;99705.09;;;10.75;62.72
40574;BME280;26283;49.020;8.644;2022-11-30T14:25:53;99709.44;;;10.76;62.69
40574;BME280;26283;49.020;8.644;2022-11-30T14:31:16;99706.75;;;10.76;62.71
40574;BME280;26283;49.020;8.644;2022-11-30T14:34:08;99714.84;;;10.76;62.66
40574;BME280;26283;49.020;8.644;2022-11-30T14:36:35;99714.84;;;10.76;62.66
40574;BME280;26283;49.020;8.644;2022-11-30T14:39:02;99720.03;;;10.78;62.64
40574;BME280;26283;49.020;8.644;2022-11-30T14:41:29;99720.03;;;10.78;62.65
40574;BME280;26283;49.020;8.644;2022-11-30T14:44:04;99721.06;;;10.77;62.65
40574;BME280;26283;49.020;8.644;2022-11-30T14:46:31;99713.81;;;10.77;62.66
40574;BME280;26283;49.020;8.644;2022-11-30T14:49:23;99718.37;;;10.77;62.63
40574;BME280;26283;49.020;8.644;2022-11-30T14:51:57;99722.50;;;10.79;62.67
40574;BME280;26283;49.020;8.644;2022-11-30T14:54:49;99714.62;;;10.78;62.59
40574;BME280;26283;49.020;8.644;2022-11-30T14:57:27;99722.50;;;10.79;62.61
40574;BME280;26283;49.020;8.644;2022-11-30T14:59:54;99716.28;;;10.79;62.57
40574;BME280;26283;49.020;8.644;2022-11-30T15:04:57;99711.94;;;10.78;62.62
40574;BME280;26283;49.020;8.644;2022-11-30T15:07:24;99717.13;;;10.79;62.58
40574;BME280;26283;49.020;8.644;2022-11-30T15:09:56;99712.78;;;10.78;62.59
40574;BME280;26283;49.020;8.644;2022-11-30T15:12:24;99715.47;;;10.78;62.59
40574;BME280;26283;49.020;8.644;2022-11-30T15:20:16;99711.72;;;10.79;62.59
40574;BME280;26283;49.020;8.644;2022-11-30T15:22:42;99712.78;;;10.78;62.58
40574;BME280;26283;49.020;8.644;2022-11-30T15:25:11;99716.28;;;10.79;62.59
40574;BME280;26283;49.020;8.644;2022-11-30T15:27:37;99704.69;;;10.78;62.60